sensor_id;sensor_type;location;lat;lon;timestamp;pressure;altitude;pressure_sealevel;temperature;humidity
69982;BME280;57319;56.274;43.980;2023-08-24T00:00:43;99136.59;;;10.15;98.46
69982;BME280;57319;56.274;43.980;2023-08-24T00:03:08;99135.78;;;10.12;97.99
69982;BME280;57319;56.274;43.980;2023-08-24T00:05:35;99142.63;;;10.13;98.15
69982;BME280;57319;56.274;43.980;2023-08-24T00:08:04;99149.50;;;10.14;98.03
69982;BME280;57319;56.274;43.980;2023-08-24T00:10:30;99153.72;;;10.15;97.57
69982;BME280;57319;56.274;43.980;2023-08-24T00:12:56;99152.84;;;10.16;97.48
69982;BME280;57319;56.274;43.980;2023-08-24T00:15:22;99161.41;;;10.16;97.08
69982;BME280;57319;56.274;43.980;2023-08-24T00:17:48;99154.53;;;10.18;97.05
69982;BME280;57319;56.274;43.980;2023-08-24T00:20:14;99156.22;;;10.19;97.17
69982;BME280;57319;56.274;43.980;2023-08-24T00:22:40;99154.44;;;10.22;96.76
69982;BME280;57319;56.274;43.980;2023-08-24T00:25:07;99158.72;;;10.23;96.31
69982;BME280;57319;56.274;43.980;2023-08-24T00:27:33;99154.44;;;10.22;96.15
69982;BME280;57319;56.274;43.980;2023-08-24T00:29:59;99151.13;;;10.18;96.22
69982;BME280;57319;56.274;43.980;2023-08-24T00:32:25;99158.84;;;10.18;96.43
69982;BME280;57319;56.274;43.980;2023-08-24T00:34:51;99168.22;;;10.19;96.08
69982;BME280;57319;56.274;43.980;2023-08-24T00:37:17;99159.66;;;10.18;96.28
69982;BME280;57319;56.274;43.980;2023-08-24T00:39:42;99151.13;;;10.16;95.90
69982;BME280;57319;56.274;43.980;2023-08-24T00:42:08;99152.94;;;10.13;96.63
69982;BME280;57319;56.274;43.980;2023-08-24T00:44:38;99149.59;;;10.08;96.93
69982;BME280;57319;56.274;43.980;2023-08-24T00:47:04;99157.31;;;10.08;97.02
69982;BME280;57319;56.274;43.980;2023-08-24T00:49:30;99154.00;;;10.01;97.29
69982;BME280;57319;56.274;43.980;2023-08-24T00:51:56;99160.88;;;10.00;97.39
69982;BME280;57319;56.274;43.980;2023-08-24T00:54:22;99163.44;;;10.02;97.32
69982;BME280;57319;56.274;43.980;2023-08-24T00:56:48;99156.66;;;9.98;97.61
69982;BME280;57319;56.274;43.980;2023-08-24T00:59:14;99152.31;;;10.01;97.59
69982;BME280;57319;56.274;43.980;2023-08-24T01:01:41;99165.13;;;10.03;97.92
69982;BME280;57319;56.274;43.980;2023-08-24T01:04:08;99160.03;;;10.00;98.07
69982;BME280;57319;56.274;43.980;2023-08-24T01:06:37;99159.16;;;10.01;98.43
69982;BME280;57319;56.274;43.980;2023-08-24T01:09:03;99160.88;;;10.00;98.11
69982;BME280;57319;56.274;43.980;2023-08-24T01:14:30;99169.41;;;10.02;98.72
69982;BME280;57319;56.274;43.980;2023-08-24T01:17:01;99167.72;;;10.00;98.54
69982;BME280;57319;56.274;43.980;2023-08-24T01:19:37;99169.44;;;10.01;98.86
69982;BME280;57319;56.274;43.980;2023-08-24T01:22:10;99171.97;;;10.02;98.94
69982;BME280;57319;56.274;43.980;2023-08-24T01:24:46;99173.72;;;10.02;98.57
69982;BME280;57319;56.274;43.980;2023-08-24T01:27:14;99171.13;;;10.02;98.83
69982;BME280;57319;56.274;43.980;2023-08-24T01:29:40;99169.41;;;10.02;98.54
69982;BME280;57319;56.274;43.980;2023-08-24T01:32:10;99176.28;;;10.02;98.47
69982;BME280;57319;56.274;43.980;2023-08-24T01:34:37;99165.97;;;10.04;99.19
69982;BME280;57319;56.274;43.980;2023-08-24T01:37:05;99173.56;;;10.08;98.53
69982;BME280;57319;56.274;43.980;2023-08-24T01:40:03;99171.88;;;10.09;98.63
69982;BME280;57319;56.274;43.980;2023-08-24T01:43:01;99183.00;;;10.09;98.94
69982;BME280;57319;56.274;43.980;2023-08-24T01:45:29;99178.72;;;10.10;98.69
69982;BME280;57319;56.274;43.980;2023-08-24T01:47:57;99178.69;;;10.11;98.53
69982;BME280;57319;56.274;43.980;2023-08-24T01:50:24;99186.31;;;10.14;98.67
69982;BME280;57319;56.274;43.980;2023-08-24T01:52:50;99184.59;;;10.15;98.65
69982;BME280;57319;56.274;43.980;2023-08-24T01:55:19;99183.69;;;10.17;98.02
69982;BME280;57319;56.274;43.980;2023-08-24T01:57:45;99187.13;;;10.16;98.23
69982;BME280;57319;56.274;43.980;2023-08-24T02:00:11;99191.44;;;10.16;98.31
69982;BME280;57319;56.274;43.980;2023-08-24T02:02:37;99185.41;;;10.17;98.42
69982;BME280;57319;56.274;43.980;2023-08-24T02:05:03;99187.97;;;10.18;98.54
69982;BME280;57319;56.274;43.980;2023-08-24T02:07:29;99187.13;;;10.16;98.77
69982;BME280;57319;56.274;43.980;2023-08-24T02:09:55;99192.25;;;10.16;98.47
69982;BME280;57319;56.274;43.980;2023-08-24T02:12:21;99185.41;;;10.17;98.40
69982;BME280;57319;56.274;43.980;2023-08-24T02:14:46;99189.69;;;10.16;98.34
69982;BME280;57319;56.274;43.980;2023-08-24T02:17:32;99200.84;;;10.17;98.56
69982;BME280;57319;56.274;43.980;2023-08-24T02:19:59;99195.66;;;10.18;98.53
69982;BME280;57319;56.274;43.980;2023-08-24T02:22:24;99206.72;;;10.24;98.87
69982;BME280;57319;56.274;43.980;2023-08-24T02:24:50;99211.78;;;10.27;98.81
69982;BME280;57319;56.274;43.980;2023-08-24T02:27:16;99205.75;;;10.29;98.55
69982;BME280;57319;56.274;43.980;2023-08-24T02:29:42;99199.66;;;10.33;98.64
69982;BME280;57319;56.274;43.980;2023-08-24T02:32:07;99202.19;;;10.37;98.38
69982;BME280;57319;56.274;43.980;2023-08-24T02:34:33;99198.75;;;10.38;98.38
69982;BME280;57319;56.274;43.980;2023-08-24T02:36:58;99198.75;;;10.38;97.84
69982;BME280;57319;56.274;43.980;2023-08-24T02:39:25;99201.28;;;10.39;97.46
69982;BME280;57319;56.274;43.980;2023-08-24T02:41:51;99199.50;;;10.43;97.06
69982;BME280;57319;56.274;43.980;2023-08-24T02:44:17;99194.31;;;10.44;97.10
69982;BME280;57319;56.274;43.980;2023-08-24T02:46:47;99202.81;;;10.48;97.38
69982;BME280;57319;56.274;43.980;2023-08-24T02:49:13;99208.78;;;10.50;97.27
69982;BME280;57319;56.274;43.980;2023-08-24T02:51:38;99206.19;;;10.51;97.11
69982;BME280;57319;56.274;43.980;2023-08-24T02:54:05;99208.75;;;10.51;97.05
69982;BME280;57319;56.274;43.980;2023-08-24T02:56:30;99212.91;;;10.57;97.10
69982;BME280;57319;56.274;43.980;2023-08-24T02:58:56;99206.88;;;10.60;97.20
69982;BME280;57319;56.274;43.980;2023-08-24T03:01:22;99206.78;;;10.63;96.95
69982;BME280;57319;56.274;43.980;2023-08-24T03:03:47;99207.66;;;10.62;96.46
69982;BME280;57319;56.274;43.980;2023-08-24T03:06:13;99211.97;;;10.61;96.83
69982;BME280;57319;56.274;43.980;2023-08-24T03:08:39;99215.38;;;10.63;96.26
69982;BME280;57319;56.274;43.980;2023-08-24T03:11:05;99217.00;;;10.66;96.13
69982;BME280;57319;56.274;43.980;2023-08-24T03:13:31;99214.38;;;10.69;96.03
69982;BME280;57319;56.274;43.980;2023-08-24T03:15:56;99222.91;;;10.71;96.62
69982;BME280;57319;56.274;43.980;2023-08-24T03:18:22;99219.44;;;10.74;96.20
69982;BME280;57319;56.274;43.980;2023-08-24T03:20:55;99227.09;;;10.75;96.02
69982;BME280;57319;56.274;43.980;2023-08-24T03:23:21;99223.63;;;10.78;96.06
69982;BME280;57319;56.274;43.980;2023-08-24T03:25:47;99228.75;;;10.79;95.83
69982;BME280;57319;56.274;43.980;2023-08-24T03:28:13;99226.13;;;10.81;95.49
69982;BME280;57319;56.274;43.980;2023-08-24T03:30:40;99230.41;;;10.82;95.27
69982;BME280;57319;56.274;43.980;2023-08-24T03:33:10;99225.25;;;10.82;94.97
69982;BME280;57319;56.274;43.980;2023-08-24T03:35:36;99234.72;;;10.81;94.71
69982;BME280;57319;56.274;43.980;2023-08-24T03:38:01;99226.94;;;10.83;94.69
69982;BME280;57319;56.274;43.980;2023-08-24T03:40:28;99233.81;;;10.84;94.88
69982;BME280;57319;56.274;43.980;2023-08-24T03:42:54;99230.28;;;10.86;94.20
69982;BME280;57319;56.274;43.980;2023-08-24T03:45:20;99231.19;;;10.85;93.95
69982;BME280;57319;56.274;43.980;2023-08-24T03:47:46;99234.59;;;10.86;94.10
69982;BME280;57319;56.274;43.980;2023-08-24T03:50:12;99232.94;;;10.83;93.41
69982;BME280;57319;56.274;43.980;2023-08-24T03:52:37;99226.06;;;10.84;93.77
69982;BME280;57319;56.274;43.980;2023-08-24T03:55:06;99231.94;;;10.89;94.23
69982;BME280;57319;56.274;43.980;2023-08-24T03:57:31;99234.47;;;10.91;93.74
69982;BME280;57319;56.274;43.980;2023-08-24T03:59:57;99237.84;;;10.94;93.52
69982;BME280;57319;56.274;43.980;2023-08-24T04:02:23;99238.63;;;10.98;93.59
69982;BME280;57319;56.274;43.980;2023-08-24T04:04:50;99241.97;;;11.01;92.38
69982;BME280;57319;56.274;43.980;2023-08-24T04:07:15;99248.75;;;11.06;92.32
69982;BME280;57319;56.274;43.980;2023-08-24T04:09:41;99253.00;;;11.08;92.48
69982;BME280;57319;56.274;43.980;2023-08-24T04:12:07;99247.75;;;11.13;91.80
69982;BME280;57319;56.274;43.980;2023-08-24T04:14:33;99245.00;;;11.19;92.75
69982;BME280;57319;56.274;43.980;2023-08-24T04:16:59;99245.84;;;11.21;91.52
69982;BME280;57319;56.274;43.980;2023-08-24T04:19:24;99251.81;;;11.22;91.18
69982;BME280;57319;56.274;43.980;2023-08-24T04:21:50;99249.16;;;11.25;90.72
69982;BME280;57319;56.274;43.980;2023-08-24T04:24:15;99253.41;;;11.27;90.49
69982;BME280;57319;56.274;43.980;2023-08-24T04:26:41;99245.56;;;11.33;91.19
69982;BME280;57319;56.274;43.980;2023-08-24T04:29:13;99249.75;;;11.37;90.79
69982;BME280;57319;56.274;43.980;2023-08-24T04:31:38;99247.88;;;11.43;91.09
69982;BME280;57319;56.274;43.980;2023-08-24T04:34:06;99249.50;;;11.47;90.11
69982;BME280;57319;56.274;43.980;2023-08-24T04:36:32;99244.13;;;11.56;90.22
69982;BME280;57319;56.274;43.980;2023-08-24T04:38:58;99244.75;;;11.66;90.32
69982;BME280;57319;56.274;43.980;2023-08-24T04:41:24;99248.84;;;11.75;90.21
69982;BME280;57319;56.274;43.980;2023-08-24T04:43:49;99251.97;;;11.86;89.77
69982;BME280;57319;56.274;43.980;2023-08-24T04:46:15;99252.72;;;11.89;88.43
69982;BME280;57319;56.274;43.980;2023-08-24T04:48:41;99256.91;;;11.94;87.60
69982;BME280;57319;56.274;43.980;2023-08-24T04:51:06;99258.59;;;11.96;87.55
69982;BME280;57319;56.274;43.980;2023-08-24T04:53:32;99255.06;;;12.00;86.91
69982;BME280;57319;56.274;43.980;2023-08-24T04:55:58;99263.47;;;12.07;86.91
69982;BME280;57319;56.274;43.980;2023-08-24T04:58:23;99264.16;;;12.14;87.06
69982;BME280;57319;56.274;43.980;2023-08-24T05:00:50;99258.88;;;12.18;86.50
69982;BME280;57319;56.274;43.980;2023-08-24T05:03:15;99260.28;;;12.30;86.12
69982;BME280;57319;56.274;43.980;2023-08-24T05:05:41;99265.09;;;12.43;85.25
69982;BME280;57319;56.274;43.980;2023-08-24T05:08:07;99255.97;;;12.61;85.04
69982;BME280;57319;56.274;43.980;2023-08-24T05:10:36;99254.84;;;12.71;84.10
69982;BME280;57319;56.274;43.980;2023-08-24T05:13:02;99254.69;;;12.76;82.56
69982;BME280;57319;56.274;43.980;2023-08-24T05:15:28;99251.91;;;12.83;82.73
69982;BME280;57319;56.274;43.980;2023-08-24T05:17:54;99257.78;;;12.87;81.32
69982;BME280;57319;56.274;43.980;2023-08-24T05:20:28;99256.03;;;12.89;80.82
69982;BME280;57319;56.274;43.980;2023-08-24T05:22:54;99244.75;;;12.92;80.71
69982;BME280;57319;56.274;43.980;2023-08-24T05:25:21;99257.47;;;12.98;80.22
69982;BME280;57319;56.274;43.980;2023-08-24T05:27:48;99257.53;;;12.96;78.95
69982;BME280;57319;56.274;43.980;2023-08-24T05:30:13;99258.41;;;12.95;78.24
69982;BME280;57319;56.274;43.980;2023-08-24T05:32:39;99253.91;;;13.02;78.51
69982;BME280;57319;56.274;43.980;2023-08-24T05:35:06;99258.94;;;13.06;77.22
69982;BME280;57319;56.274;43.980;2023-08-24T05:37:32;99260.66;;;13.06;76.23
69982;BME280;57319;56.274;43.980;2023-08-24T05:40:01;99263.06;;;13.12;75.88
69982;BME280;57319;56.274;43.980;2023-08-24T05:42:30;99260.53;;;13.11;72.47
69982;BME280;57319;56.274;43.980;2023-08-24T05:44:56;99252.75;;;13.12;70.64
69982;BME280;57319;56.274;43.980;2023-08-24T05:47:21;99258.63;;;13.16;70.93
69982;BME280;57319;56.274;43.980;2023-08-24T05:49:47;99262.75;;;13.23;72.15
69982;BME280;57319;56.274;43.980;2023-08-24T05:52:13;99261.53;;;13.33;73.29
69982;BME280;57319;56.274;43.980;2023-08-24T05:54:39;99262.19;;;13.42;73.61
69982;BME280;57319;56.274;43.980;2023-08-24T05:57:05;99261.13;;;13.47;70.14
69982;BME280;57319;56.274;43.980;2023-08-24T05:59:32;99268.88;;;13.47;70.00
69982;BME280;57319;56.274;43.980;2023-08-24T06:01:59;99260.84;;;13.56;68.91
69982;BME280;57319;56.274;43.980;2023-08-24T06:04:24;99264.38;;;13.54;69.22
69982;BME280;57319;56.274;43.980;2023-08-24T06:06:50;99266.16;;;13.52;70.26
69982;BME280;57319;56.274;43.980;2023-08-24T06:09:16;99262.00;;;13.46;70.11
69982;BME280;57319;56.274;43.980;2023-08-24T06:11:41;99261.47;;;13.36;69.39
69982;BME280;57319;56.274;43.980;2023-08-24T06:14:07;99267.44;;;13.38;69.77
69982;BME280;57319;56.274;43.980;2023-08-24T06:16:33;99267.41;;;13.40;70.42
69982;BME280;57319;56.274;43.980;2023-08-24T06:18:58;99262.06;;;13.45;70.99
69982;BME280;57319;56.274;43.980;2023-08-24T06:21:24;99267.75;;;13.56;71.70
69982;BME280;57319;56.274;43.980;2023-08-24T06:23:50;99276.78;;;13.69;71.76
69982;BME280;57319;56.274;43.980;2023-08-24T06:26:17;99263.50;;;13.80;71.07
69982;BME280;57319;56.274;43.980;2023-08-24T06:28:43;99269.41;;;13.84;69.58
69982;BME280;57319;56.274;43.980;2023-08-24T06:31:09;99271.84;;;13.88;69.61
69982;BME280;57319;56.274;43.980;2023-08-24T06:33:35;99271.69;;;13.93;69.84
69982;BME280;57319;56.274;43.980;2023-08-24T06:36:02;99275.81;;;13.99;70.37
69982;BME280;57319;56.274;43.980;2023-08-24T06:38:31;99280.03;;;14.01;69.42
69982;BME280;57319;56.274;43.980;2023-08-24T06:41:00;99285.53;;;13.92;68.78
69982;BME280;57319;56.274;43.980;2023-08-24T06:43:27;99275.31;;;13.87;68.80
69982;BME280;57319;56.274;43.980;2023-08-24T06:45:54;99283.66;;;13.96;69.76
69982;BME280;57319;56.274;43.980;2023-08-24T06:48:20;99285.00;;;14.07;70.11
69982;BME280;57319;56.274;43.980;2023-08-24T06:50:46;99286.69;;;14.08;66.84
69982;BME280;57319;56.274;43.980;2023-08-24T06:53:12;99275.22;;;14.16;66.65
69982;BME280;57319;56.274;43.980;2023-08-24T06:55:37;99276.69;;;14.23;65.97
69982;BME280;57319;56.274;43.980;2023-08-24T06:58:03;99274.78;;;14.28;66.29
69982;BME280;57319;56.274;43.980;2023-08-24T07:00:32;99265.97;;;14.34;65.94
69982;BME280;57319;56.274;43.980;2023-08-24T07:02:59;99265.06;;;14.35;66.38
69982;BME280;57319;56.274;43.980;2023-08-24T07:05:25;99267.72;;;14.33;63.72
69982;BME280;57319;56.274;43.980;2023-08-24T07:07:51;99271.00;;;14.37;63.20
69982;BME280;57319;56.274;43.980;2023-08-24T07:10:17;99276.72;;;14.47;63.67
69982;BME280;57319;56.274;43.980;2023-08-24T07:12:43;99273.97;;;14.51;64.41
69982;BME280;57319;56.274;43.980;2023-08-24T07:15:13;99266.69;;;14.61;64.05
69982;BME280;57319;56.274;43.980;2023-08-24T07:17:39;99275.25;;;14.65;64.09
69982;BME280;57319;56.274;43.980;2023-08-24T07:20:06;99264.75;;;14.68;62.27
69982;BME280;57319;56.274;43.980;2023-08-24T07:22:33;99272.41;;;14.71;62.40
69982;BME280;57319;56.274;43.980;2023-08-24T07:25:00;99273.09;;;14.76;63.41
69982;BME280;57319;56.274;43.980;2023-08-24T07:27:26;99272.81;;;14.84;62.40
69982;BME280;57319;56.274;43.980;2023-08-24T07:29:53;99273.38;;;14.92;62.82
69982;BME280;57319;56.274;43.980;2023-08-24T07:32:19;99280.81;;;15.00;63.42
69982;BME280;57319;56.274;43.980;2023-08-24T07:34:44;99276.50;;;15.00;60.59
69982;BME280;57319;56.274;43.980;2023-08-24T07:37:10;99282.66;;;14.98;58.86
69982;BME280;57319;56.274;43.980;2023-08-24T07:39:37;99280.59;;;15.06;59.16
69982;BME280;57319;56.274;43.980;2023-08-24T07:42:03;99283.00;;;15.10;58.59
69982;BME280;57319;56.274;43.980;2023-08-24T07:44:29;99286.25;;;15.16;59.35
69982;BME280;57319;56.274;43.980;2023-08-24T07:46:54;99284.50;;;15.16;57.60
69982;BME280;57319;56.274;43.980;2023-08-24T07:49:20;99286.75;;;15.25;58.34
69982;BME280;57319;56.274;43.980;2023-08-24T07:51:46;99285.59;;;15.33;58.86
69982;BME280;57319;56.274;43.980;2023-08-24T07:54:12;99275.69;;;15.42;58.71
69982;BME280;57319;56.274;43.980;2023-08-24T07:56:38;99276.66;;;15.40;57.26
69982;BME280;57319;56.274;43.980;2023-08-24T07:59:04;99279.16;;;15.43;58.71
69982;BME280;57319;56.274;43.980;2023-08-24T08:01:30;99285.47;;;15.58;59.49
69982;BME280;57319;56.274;43.980;2023-08-24T08:03:56;99279.03;;;15.67;58.52
69982;BME280;57319;56.274;43.980;2023-08-24T08:06:22;99287.22;;;15.78;58.46
69982;BME280;57319;56.274;43.980;2023-08-24T08:08:50;99279.81;;;15.91;56.81
69982;BME280;57319;56.274;43.980;2023-08-24T08:11:17;99283.44;;;15.87;55.48
69982;BME280;57319;56.274;43.980;2023-08-24T08:13:42;99287.47;;;15.94;56.00
69982;BME280;57319;56.274;43.980;2023-08-24T08:16:08;99286.28;;;15.81;56.76
69982;BME280;57319;56.274;43.980;2023-08-24T08:18:35;99288.13;;;15.77;56.29
69982;BME280;57319;56.274;43.980;2023-08-24T08:21:08;99280.19;;;15.82;55.80
69982;BME280;57319;56.274;43.980;2023-08-24T08:23:33;99282.13;;;15.97;55.35
69982;BME280;57319;56.274;43.980;2023-08-24T08:25:59;99280.78;;;16.09;54.48
69982;BME280;57319;56.274;43.980;2023-08-24T08:28:25;99284.59;;;16.21;55.63
69982;BME280;57319;56.274;43.980;2023-08-24T08:30:50;99278.78;;;16.35;54.66
69982;BME280;57319;56.274;43.980;2023-08-24T08:33:16;99280.19;;;16.23;52.87
69982;BME280;57319;56.274;43.980;2023-08-24T08:35:42;99282.72;;;16.24;53.39
69982;BME280;57319;56.274;43.980;2023-08-24T08:38:08;99284.78;;;16.16;53.14
69982;BME280;57319;56.274;43.980;2023-08-24T08:40:37;99296.97;;;16.14;53.46
69982;BME280;57319;56.274;43.980;2023-08-24T08:43:03;99291.09;;;16.10;53.93
69982;BME280;57319;56.274;43.980;2023-08-24T08:45:29;99289.59;;;16.05;53.74
69982;BME280;57319;56.274;43.980;2023-08-24T08:47:59;99288.94;;;16.00;53.22
69982;BME280;57319;56.274;43.980;2023-08-24T08:50:27;99288.94;;;16.00;54.22
69982;BME280;57319;56.274;43.980;2023-08-24T08:52:53;99296.53;;;16.04;55.13
69982;BME280;57319;56.274;43.980;2023-08-24T08:55:19;99294.88;;;16.03;55.33
69982;BME280;57319;56.274;43.980;2023-08-24T08:57:48;99288.75;;;16.04;54.75
69982;BME280;57319;56.274;43.980;2023-08-24T09:00:18;99290.38;;;16.07;54.50
69982;BME280;57319;56.274;43.980;2023-08-24T09:02:45;99292.22;;;16.05;54.62
69982;BME280;57319;56.274;43.980;2023-08-24T09:05:12;99292.28;;;16.03;54.13
69982;BME280;57319;56.274;43.980;2023-08-24T09:07:41;99297.47;;;16.03;53.14
69982;BME280;57319;56.274;43.980;2023-08-24T09:10:07;99292.44;;;15.99;52.28
69982;BME280;57319;56.274;43.980;2023-08-24T09:12:34;99294.16;;;16.00;51.68
69982;BME280;57319;56.274;43.980;2023-08-24T09:15:03;99292.59;;;15.96;51.76
69982;BME280;57319;56.274;43.980;2023-08-24T09:17:30;99292.59;;;15.96;52.46
69982;BME280;57319;56.274;43.980;2023-08-24T09:19:58;99295.91;;;15.99;52.06
69982;BME280;57319;56.274;43.980;2023-08-24T09:22:24;99295.69;;;16.04;52.57
69982;BME280;57319;56.274;43.980;2023-08-24T09:24:50;99294.66;;;16.08;53.09
69982;BME280;57319;56.274;43.980;2023-08-24T09:27:18;99300.09;;;16.02;53.21
69982;BME280;57319;56.274;43.980;2023-08-24T09:29:51;99300.16;;;16.00;54.67
69982;BME280;57319;56.274;43.980;2023-08-24T09:32:31;99297.50;;;16.02;54.67
69982;BME280;57319;56.274;43.980;2023-08-24T09:35:10;99302.91;;;15.97;53.32
69982;BME280;57319;56.274;43.980;2023-08-24T09:37:37;99303.81;;;15.96;54.19
69982;BME280;57319;56.274;43.980;2023-08-24T09:40:04;99300.56;;;15.91;53.39
69982;BME280;57319;56.274;43.980;2023-08-24T09:42:41;99305.81;;;15.89;53.77
69982;BME280;57319;56.274;43.980;2023-08-24T09:45:11;99310.09;;;15.90;52.57
69982;BME280;57319;56.274;43.980;2023-08-24T09:47:37;99309.25;;;15.90;53.17
69982;BME280;57319;56.274;43.980;2023-08-24T09:50:04;99308.41;;;15.89;52.99
69982;BME280;57319;56.274;43.980;2023-08-24T09:52:34;99305.28;;;15.81;53.61
69982;BME280;57319;56.274;43.980;2023-08-24T09:55:04;99307.31;;;15.73;52.48
69982;BME280;57319;56.274;43.980;2023-08-24T09:57:36;99301.22;;;15.74;51.68
69982;BME280;57319;56.274;43.980;2023-08-24T10:00:06;99307.88;;;15.81;51.86
69982;BME280;57319;56.274;43.980;2023-08-24T10:02:52;99311.00;;;15.89;52.85
69982;BME280;57319;56.274;43.980;2023-08-24T10:05:26;99307.88;;;15.81;51.95
69982;BME280;57319;56.274;43.980;2023-08-24T10:07:53;99312.25;;;15.79;52.46
69982;BME280;57319;56.274;43.980;2023-08-24T10:10:20;99308.81;;;15.80;51.71
69982;BME280;57319;56.274;43.980;2023-08-24T10:12:50;99306.22;;;16.01;49.27
69982;BME280;57319;56.274;43.980;2023-08-24T10:15:18;99305.69;;;16.34;49.25
69982;BME280;57319;56.274;43.980;2023-08-24T10:17:44;99301.84;;;16.61;47.91
69982;BME280;57319;56.274;43.980;2023-08-24T10:20:11;99298.06;;;16.88;46.70
69982;BME280;57319;56.274;43.980;2023-08-24T10:22:37;99299.78;;;17.08;46.60
69982;BME280;57319;56.274;43.980;2023-08-24T10:25:07;99302.06;;;17.33;46.02
69982;BME280;57319;56.274;43.980;2023-08-24T10:27:34;99295.56;;;17.24;45.92
69982;BME280;57319;56.274;43.980;2023-08-24T10:30:00;99298.72;;;17.12;45.94
69982;BME280;57319;56.274;43.980;2023-08-24T10:32:26;99301.81;;;17.01;45.99
69982;BME280;57319;56.274;43.980;2023-08-24T10:34:53;99299.06;;;16.85;45.28
69982;BME280;57319;56.274;43.980;2023-08-24T10:37:25;99294.41;;;16.73;46.49
69982;BME280;57319;56.274;43.980;2023-08-24T10:39:52;99297.41;;;16.63;47.84
69982;BME280;57319;56.274;43.980;2023-08-24T10:42:18;99300.31;;;16.57;48.61
69982;BME280;57319;56.274;43.980;2023-08-24T10:44:45;99297.97;;;16.51;49.15
69982;BME280;57319;56.274;43.980;2023-08-24T10:47:18;99299.09;;;16.45;48.06
69982;BME280;57319;56.274;43.980;2023-08-24T10:52:24;99302.13;;;16.36;48.26
69982;BME280;57319;56.274;43.980;2023-08-24T10:54:53;99303.19;;;16.31;47.47
69982;BME280;57319;56.274;43.980;2023-08-24T10:57:25;99302.22;;;16.33;47.95
69982;BME280;57319;56.274;43.980;2023-08-24T10:59:59;99298.59;;;16.37;48.21
69982;BME280;57319;56.274;43.980;2023-08-24T11:02:26;99297.69;;;16.38;47.15
69982;BME280;57319;56.274;43.980;2023-08-24T11:05:14;99295.09;;;16.38;47.24
69982;BME280;57319;56.274;43.980;2023-08-24T11:07:48;99295.72;;;16.43;47.36
69982;BME280;57319;56.274;43.980;2023-08-24T11:10:15;99299.88;;;16.48;47.49
69982;BME280;57319;56.274;43.980;2023-08-24T11:15:44;99288.00;;;16.42;48.25
69982;BME280;57319;56.274;43.980;2023-08-24T11:18:11;99287.16;;;16.41;48.51
69982;BME280;57319;56.274;43.980;2023-08-24T11:20:37;99286.97;;;16.46;48.42
69982;BME280;57319;56.274;43.980;2023-08-24T11:23:03;99288.50;;;16.50;48.09
69982;BME280;57319;56.274;43.980;2023-08-24T11:25:29;99292.00;;;16.49;47.13
69982;BME280;57319;56.274;43.980;2023-08-24T11:27:57;99288.28;;;16.55;47.09
69982;BME280;57319;56.274;43.980;2023-08-24T11:30:23;99299.97;;;16.65;47.14
69982;BME280;57319;56.274;43.980;2023-08-24T11:32:52;99291.63;;;16.77;47.39
69982;BME280;57319;56.274;43.980;2023-08-24T11:35:19;99296.00;;;16.96;47.92
69982;BME280;57319;56.274;43.980;2023-08-24T11:37:54;99292.19;;;17.03;46.00
69982;BME280;57319;56.274;43.980;2023-08-24T11:40:20;99295.50;;;17.07;46.44
69982;BME280;57319;56.274;43.980;2023-08-24T11:42:46;99286.50;;;17.14;46.93
69982;BME280;57319;56.274;43.980;2023-08-24T11:45:12;99286.44;;;17.70;45.36
69982;BME280;57319;56.274;43.980;2023-08-24T11:47:40;99286.56;;;17.67;44.22
69982;BME280;57319;56.274;43.980;2023-08-24T11:50:07;99280.50;;;17.49;43.49
69982;BME280;57319;56.274;43.980;2023-08-24T11:52:39;99279.44;;;17.35;43.00
69982;BME280;57319;56.274;43.980;2023-08-24T11:55:06;99281.34;;;17.32;44.50
69982;BME280;57319;56.274;43.980;2023-08-24T11:57:35;99287.53;;;17.29;44.49
69982;BME280;57319;56.274;43.980;2023-08-24T12:00:05;99274.28;;;17.34;43.01
69982;BME280;57319;56.274;43.980;2023-08-24T12:02:34;99286.50;;;17.51;42.91
69982;BME280;57319;56.274;43.980;2023-08-24T12:05:03;99283.72;;;17.54;43.45
69982;BME280;57319;56.274;43.980;2023-08-24T12:07:31;99282.97;;;17.52;43.17
69982;BME280;57319;56.274;43.980;2023-08-24T12:10:00;99283.81;;;17.70;42.45
69982;BME280;57319;56.274;43.980;2023-08-24T12:12:27;99280.22;;;17.55;41.82
69982;BME280;57319;56.274;43.980;2023-08-24T12:14:55;99290.00;;;17.50;42.45
69982;BME280;57319;56.274;43.980;2023-08-24T12:17:20;99276.38;;;17.44;41.80
69982;BME280;57319;56.274;43.980;2023-08-24T12:20:00;99282.63;;;17.40;41.23
69982;BME280;57319;56.274;43.980;2023-08-24T12:22:29;99282.63;;;17.40;42.35
69982;BME280;57319;56.274;43.980;2023-08-24T12:24:54;99278.38;;;17.39;43.36
69982;BME280;57319;56.274;43.980;2023-08-24T12:27:24;99282.03;;;17.35;44.04
69982;BME280;57319;56.274;43.980;2023-08-24T12:29:51;99282.03;;;17.35;44.92
69982;BME280;57319;56.274;43.980;2023-08-24T12:32:19;99278.75;;;17.49;44.06
69982;BME280;57319;56.274;43.980;2023-08-24T12:34:46;99273.56;;;17.49;44.46
69982;BME280;57319;56.274;43.980;2023-08-24T12:37:12;99279.31;;;17.56;44.45
69982;BME280;57319;56.274;43.980;2023-08-24T12:39:39;99275.00;;;17.55;44.13
69982;BME280;57319;56.274;43.980;2023-08-24T12:42:05;99271.41;;;17.75;43.88
69982;BME280;57319;56.274;43.980;2023-08-24T12:44:32;99270.78;;;17.87;43.06
69982;BME280;57319;56.274;43.980;2023-08-24T12:47:02;99275.22;;;18.20;42.13
69982;BME280;57319;56.274;43.980;2023-08-24T12:49:29;99276.25;;;18.18;43.32
69982;BME280;57319;56.274;43.980;2023-08-24T12:51:54;99279.53;;;18.04;42.28
69982;BME280;57319;56.274;43.980;2023-08-24T12:54:20;99278.00;;;17.82;42.08
69982;BME280;57319;56.274;43.980;2023-08-24T12:56:46;99279.81;;;17.62;42.18
69982;BME280;57319;56.274;43.980;2023-08-24T12:59:12;99279.91;;;17.43;42.33